KMFD/MFD METAR and TAF weather

Enter ICAO airport designator
Station Type Date Time Source
KMFD METAR 2020/07/14 04:52 UTC NOAA

KMFD 140452Z AUTO 00000KT 10SM CLR 18/14 A3002 RMK AO2 SLP159 T01830139 402720178


Station Type Date Time Source
KMFD Decoded METAR 2020/07/14 04:52 UTC NOAA

LAHM MUNICIPAL AIRPORT, OH, United States (KMFD) 40-49N 082-31W 395M
Jul 14, 2020 - 12:52 AM EDT / 2020.07.14 0452 UTC
Wind: Calm:0
Visibility: 10 mile(s):0
Sky conditions: clear
Temperature: 64.9 F (18.3 C)
Dew Point: 57.0 F (13.9 C)
Relative Humidity: 75%
Pressure (altimeter): 30.02 in. Hg (1016 hPa)
ob: KMFD 140452Z AUTO 00000KT 10SM CLR 18/14 A3002 RMK AO2 SLP159 T01830139 402720178
cycle: 5

Station Type Date Time Source
KMFD TAF 2020/07/13 19:18 UTC NOAA

TAF
AMD KMFD 131914Z 1319/1418 35007KT P6SM SCT035 BKN060
FM140400 VRB03KT P6SM FEW250

Example: see airport list